This is the latest recevied weather packets stored in our database for station/object NG7M. If no packets are shown the sender has not sent any weather packets the latest 10 day(s).
| Time | Temp. | Humidity | Pressure | Rain* | Wind** | Luminosity | Snow |
|---|---|---|---|---|---|---|---|
| 1778073004 | 6.67° C | 50% | 1016.6 hPa | 0 mm | - | - | - |
| 1778072403 | 6.67° C | 52% | 1016.5 hPa | 0 mm | - | - | - |
| 1778072104 | 6.67° C | 54% | 1016.5 hPa | 0 mm | - | - | - |
| 1778071503 | 6.11° C | 55% | 1016.2 hPa | 0 mm | - | - | - |
| 1778061303 | 7.78° C | 52% | 1014.1 hPa | 0 mm | - | - | - |
| 1778057703 | 9.44° C | 45% | 1013 hPa | 0 mm | - | - | - |
| 1778057404 | 9.44° C | 46% | 1013.1 hPa | 0.25 mm | - | - | - |
| 1778056203 | 9.44° C | 50% | 1012.7 hPa | 1.02 mm | - | - | - |
| 1778055604 | 9.44° C | 52% | 1012.2 hPa | 1.02 mm | - | - | - |
| 1778053203 | 11.11° C | 61% | 1011.6 hPa | 0.25 mm | - | - | - |
| 1778052304 | 12.22° C | 63% | 1011 hPa | 0 mm | - | - | - |
| 1778051404 | 12.22° C | 61% | 1010.7 hPa | 0 mm | - | - | - |
| 1778050204 | 12.78° C | 58% | 1010.6 hPa | 0 mm | - | - | - |
| 1778049604 | 12.78° C | 57% | 1010.6 hPa | 0 mm | - | - | - |
| 1778045703 | 13.33° C | 55% | 1010 hPa | 0 mm | - | - | - |
| 1778045103 | 13.33° C | 53% | 1009.8 hPa | 0 mm | - | - | - |
| 1778044804 | 13.33° C | 53% | 1009.8 hPa | 0 mm | - | - | - |
| 1778044204 | 13.89° C | 49% | 1009.8 hPa | 0 mm | - | - | - |
| 1778043004 | 13.89° C | 49% | 1009.5 hPa | 0 mm | - | - | - |
| 1778042104 | 13.89° C | 49% | 1009.5 hPa | 0 mm | - | - | - |
| 1778037903 | 14.44° C | 46% | 1008.8 hPa | 0 mm | - | - | - |
| 1778035804 | 15° C | 43% | 1008.2 hPa | 0 mm | - | - | - |
| 1778034004 | 16.11° C | 39% | 1008.1 hPa | 0 mm | - | - | - |
| 1778032204 | 16.67° C | 38% | 1007.8 hPa | 0 mm | - | - | - |
| 1778031604 | 16.67° C | 37% | 1007.6 hPa | 0 mm | - | - | - |
* Rain latest hour (hover to see other rain measurements)
** Current wind speed in m/s (hover to see current wind gust speed)